createdAt,value
2022-08-05T00:00:16.035Z,100269.22
2022-08-05T00:02:49.124Z,100272.25
2022-08-05T00:06:02.039Z,100256.44
2022-08-05T00:08:33.006Z,100274.50
2022-08-05T00:10:57.110Z,100272.50
2022-08-05T00:13:38.128Z,100281.53
2022-08-05T00:16:08.441Z,100275.97
2022-08-05T00:18:36.351Z,100269.66
2022-08-05T00:21:05.006Z,100275.19
2022-08-05T00:23:46.142Z,100274.75
2022-08-05T00:26:22.121Z,100273.97
2022-08-05T00:28:49.491Z,100271.66
2022-08-05T00:31:16.421Z,100272.91
2022-08-05T00:34:55.705Z,100269.75
2022-08-05T00:37:10.449Z,100276.50
2022-08-05T00:39:44.271Z,100275.28
2022-08-05T00:42:32.882Z,100283.88
2022-08-05T00:45:00.049Z,100289.41
2022-08-05T00:47:31.587Z,100291.75
2022-08-05T00:50:13.573Z,100294.09
2022-08-05T00:52:40.204Z,100315.34
2022-08-05T00:55:07.159Z,100296.03
2022-08-05T00:57:55.498Z,100294.84
2022-08-05T01:00:20.439Z,100279.09
2022-08-05T01:02:50.143Z,100255.44
2022-08-05T01:05:16.933Z,100239.59
2022-08-05T01:08:40.148Z,100226.16
2022-08-05T01:10:37.248Z,100226.03
2022-08-05T01:13:19.441Z,100240.31
2022-08-05T01:15:56.732Z,100243.91
2022-08-05T01:18:29.637Z,100253.09
2022-08-05T01:21:12.065Z,100259.41
2022-08-05T01:23:58.027Z,100253.94
2022-08-05T01:26:30.554Z,100258.63
2022-08-05T01:29:05.339Z,100258.25
2022-08-05T01:31:46.792Z,100244.06
2022-08-05T01:34:31.023Z,100219.22
2022-08-05T01:37:24.987Z,100218.44
2022-08-05T01:39:58.735Z,100212.94
2022-08-05T01:42:27.745Z,100196.81
2022-08-05T01:44:59.827Z,100210.59
2022-08-05T01:47:39.417Z,100192.50
2022-08-05T01:50:15.075Z,100186.09
2022-08-05T01:52:50.170Z,100185.19
2022-08-05T01:55:20.306Z,100192.56
2022-08-05T01:58:11.970Z,100196.94
2022-08-05T02:00:40.756Z,100197.78
2022-08-05T02:03:31.475Z,100204.81
2022-08-05T02:06:03.381Z,100203.25
2022-08-05T02:08:54.838Z,100208.00
2022-08-05T02:11:33.503Z,100219.81
2022-08-05T02:14:05.725Z,100231.31
2022-08-05T02:16:52.932Z,100249.09
2022-08-05T02:19:34.989Z,100258.50
2022-08-05T02:22:25.831Z,100259.28
2022-08-05T02:24:59.978Z,100246.28
2022-08-05T02:27:29.949Z,100239.22
2022-08-05T02:30:17.332Z,100246.69
2022-08-05T02:32:48.153Z,100259.69
2022-08-05T02:35:27.752Z,100249.03
2022-08-05T02:37:56.679Z,100253.78
2022-08-05T02:40:27.549Z,100263.19
2022-08-05T02:42:56.396Z,100278.09
2022-08-05T02:45:25.297Z,100265.44
2022-08-05T02:48:06.465Z,100260.69
2022-08-05T02:50:38.146Z,100257.53
2022-08-05T02:53:11.798Z,100248.88
2022-08-05T02:55:52.065Z,100248.03
2022-08-05T02:58:23.105Z,100245.69
2022-08-05T03:00:55.925Z,100261.44
2022-08-05T03:03:23.579Z,100285.09
2022-08-05T03:06:55.332Z,100300.00
2022-08-05T03:08:42.623Z,100299.19
2022-08-05T03:11:55.034Z,100314.97
2022-08-05T03:14:13.574Z,100317.31
2022-08-05T03:16:40.934Z,100302.78
2022-08-05T03:19:16.903Z,100263.78
2022-08-05T03:21:48.921Z,100220.31
2022-08-05T03:24:29.586Z,100193.28
2022-08-05T03:26:58.162Z,100171.03
2022-08-05T03:29:24.867Z,100197.50
2022-08-05T03:32:12.179Z,100279.41
2022-08-05T03:34:42.752Z,100326.38
2022-08-05T03:37:18.540Z,100344.59
2022-08-05T03:40:01.486Z,100320.78
2022-08-05T03:42:32.339Z,100327.94
2022-08-05T03:45:01.762Z,100374.34
2022-08-05T03:47:47.251Z,100376.22
2022-08-05T03:50:15.910Z,100389.09
2022-08-05T03:54:58.751Z,100385.94
2022-08-05T03:56:12.162Z,100386.59
2022-08-05T03:58:46.900Z,100376.97
2022-08-05T04:01:16.324Z,100364.28
2022-08-05T04:04:09.808Z,100367.38
2022-08-05T04:06:37.428Z,100391.00
2022-08-05T04:09:08.715Z,100407.13
2022-08-05T04:11:47.610Z,100427.91
2022-08-05T04:14:19.410Z,100448.06
2022-08-05T04:16:58.523Z,100461.19
2022-08-05T04:19:25.743Z,100465.16
2022-08-05T04:22:09.916Z,100474.44
2022-08-05T04:24:44.415Z,100479.25
2022-08-05T04:27:19.231Z,100481.84
2022-08-05T04:29:45.872Z,100498.28
2022-08-05T04:32:15.646Z,100487.19
2022-08-05T04:34:57.559Z,100506.69
2022-08-05T04:38:00.898Z,100498.00
2022-08-05T04:40:11.679Z,100512.09
2022-08-05T04:42:38.384Z,100511.25
2022-08-05T04:45:08.670Z,100512.81
2022-08-05T04:47:47.185Z,100515.22
2022-08-05T04:50:14.055Z,100522.34
2022-08-05T04:53:01.774Z,100518.88
2022-08-05T04:56:15.086Z,100514.53
2022-08-05T04:58:17.148Z,100512.09
2022-08-05T05:00:50.662Z,100517.19
2022-08-05T05:03:18.824Z,100525.59
2022-08-05T05:06:40.635Z,100528.25
2022-08-05T05:08:36.283Z,100528.25
2022-08-05T05:11:10.528Z,100539.88
2022-08-05T05:13:43.479Z,100550.72
2022-08-05T05:16:10.530Z,100542.66
2022-08-05T05:18:38.401Z,100568.25
2022-08-05T05:21:05.558Z,100568.31
2022-08-05T05:23:39.041Z,100551.91
2022-08-05T05:26:19.145Z,100528.25
2022-08-05T05:28:45.778Z,100521.56
2022-08-05T05:31:12.720Z,100536.19
2022-08-05T05:33:58.859Z,100531.63
2022-08-05T05:36:28.559Z,100515.28
2022-08-05T05:38:57.260Z,100528.41
2022-08-05T05:41:24.348Z,100534.19
2022-08-05T05:43:57.873Z,100529.75
2022-08-05T05:46:27.096Z,100544.00
2022-08-05T05:48:54.005Z,100550.47
2022-08-05T05:51:22.654Z,100536.34
2022-08-05T05:53:58.146Z,100535.47
2022-08-05T05:56:32.936Z,100536.97
2022-08-05T05:59:05.317Z,100521.13
2022-08-05T06:01:37.945Z,100524.31
2022-08-05T06:04:14.570Z,100517.53
2022-08-05T06:06:43.371Z,100507.81
2022-08-05T06:09:16.784Z,100510.25
2022-08-05T06:12:01.424Z,100506.72
2022-08-05T06:14:30.913Z,100493.63
2022-08-05T06:16:58.430Z,100495.81
2022-08-05T06:19:35.450Z,100489.94
2022-08-05T06:22:06.705Z,100502.22
2022-08-05T06:24:35.056Z,100495.78
2022-08-05T06:27:03.916Z,100495.25
2022-08-05T06:29:48.863Z,100494.28
2022-08-05T06:32:26.186Z,100495.72
2022-08-05T06:34:58.467Z,100497.47
2022-08-05T06:37:55.917Z,100494.84
2022-08-05T06:40:18.549Z,100501.59
2022-08-05T06:42:51.910Z,100513.81
2022-08-05T06:46:03.346Z,100516.44
2022-08-05T06:48:47.376Z,100530.03
2022-08-05T06:50:56.065Z,100536.44
2022-08-05T06:53:28.245Z,100531.78
2022-08-05T06:55:56.321Z,100526.84
2022-08-05T06:58:35.504Z,100543.88
2022-08-05T07:01:05.867Z,100541.03
2022-08-05T07:03:33.941Z,100554.72
2022-08-05T07:06:06.019Z,100551.19
2022-08-05T07:08:47.704Z,100567.63
2022-08-05T07:11:22.370Z,100568.78
2022-08-05T07:14:20.074Z,100574.41
2022-08-05T07:18:02.352Z,100566.09
2022-08-05T07:22:28.139Z,100580.38
2022-08-05T07:24:58.183Z,100566.56
2022-08-05T07:27:27.642Z,100593.41
2022-08-05T07:30:22.742Z,100585.59
2022-08-05T07:32:55.162Z,100588.97
2022-08-05T07:36:03.319Z,100584.88
2022-08-05T07:38:12.439Z,100574.56
2022-08-05T07:40:59.092Z,100572.81
2022-08-05T07:43:29.537Z,100555.16
2022-08-05T07:45:57.317Z,100544.94
2022-08-05T07:49:00.627Z,100546.88
2022-08-05T07:51:23.349Z,100532.63
2022-08-05T07:53:58.910Z,100542.50
2022-08-05T07:57:02.578Z,100531.94
2022-08-05T07:59:15.526Z,100549.25
2022-08-05T08:01:51.821Z,100560.69
2022-08-05T08:04:37.823Z,100555.78
2022-08-05T08:07:07.369Z,100531.66
2022-08-05T08:09:34.536Z,100545.22
2022-08-05T08:12:09.144Z,100573.78
2022-08-05T08:14:42.500Z,100575.66
2022-08-05T08:17:16.050Z,100592.03
2022-08-05T08:20:42.863Z,100609.53
2022-08-05T08:22:32.559Z,100604.78
2022-08-05T08:25:03.139Z,100589.03
2022-08-05T08:27:40.114Z,100568.31
2022-08-05T08:30:29.766Z,100549.44
2022-08-05T08:33:01.044Z,100556.75
2022-08-05T08:35:34.722Z,100547.34
2022-08-05T08:38:08.332Z,100538.31
2022-08-05T08:40:39.455Z,100539.75
2022-08-05T08:45:16.652Z,100522.06
2022-08-05T08:45:54.616Z,100523.00
2022-08-05T08:49:03.067Z,100511.00
2022-08-05T08:52:02.148Z,100494.63
2022-08-05T08:53:57.944Z,100525.34
2022-08-05T08:56:27.120Z,100533.50
2022-08-05T08:58:53.905Z,100521.72
2022-08-05T09:01:21.019Z,100513.03
2022-08-05T09:03:57.199Z,100479.44
2022-08-05T09:06:28.038Z,100491.34
2022-08-05T09:09:00.344Z,100495.47
2022-08-05T09:11:51.176Z,100502.47
2022-08-05T09:14:58.017Z,100507.09
2022-08-05T09:17:01.716Z,100523.19
2022-08-05T09:19:36.780Z,100546.28
2022-08-05T09:22:17.634Z,100549.69
2022-08-05T09:25:14.012Z,100529.31
2022-08-05T09:28:04.449Z,100540.34
2022-08-05T09:30:34.087Z,100523.88
2022-08-05T09:33:04.933Z,100525.38
2022-08-05T09:35:32.781Z,100516.53
2022-08-05T09:38:12.712Z,100523.47
2022-08-05T09:40:52.441Z,100524.41
2022-08-05T09:43:28.098Z,100537.41
2022-08-05T09:46:30.220Z,100551.09
2022-08-05T09:49:07.754Z,100551.66
2022-08-05T09:51:48.824Z,100557.47
2022-08-05T09:54:21.243Z,100551.72
2022-08-05T09:56:57.556Z,100556.19
2022-08-05T09:59:28.125Z,100557.88
2022-08-05T10:01:57.890Z,100552.31
2022-08-05T10:04:39.633Z,100550.34
2022-08-05T10:07:19.598Z,100542.19
2022-08-05T10:10:13.918Z,100546.53
2022-08-05T10:13:02.641Z,100542.22
2022-08-05T10:15:41.418Z,100544.78
2022-08-05T10:18:09.692Z,100543.19
2022-08-05T10:20:48.422Z,100548.41
2022-08-05T10:23:55.071Z,100555.56
2022-08-05T10:26:14.360Z,100540.88
2022-08-05T10:28:46.650Z,100549.63
2022-08-05T10:32:51.660Z,100558.84
2022-08-05T10:34:01.858Z,100561.31
2022-08-05T10:36:29.936Z,100564.41
2022-08-05T10:39:05.235Z,100574.34
2022-08-05T10:42:33.437Z,100579.69
2022-08-05T10:45:01.877Z,100579.31
2022-08-05T10:47:44.087Z,100576.34
2022-08-05T10:50:36.213Z,100558.75
2022-08-05T10:53:03.989Z,100544.63
2022-08-05T10:55:32.933Z,100533.91
2022-08-05T10:58:20.640Z,100518.84
2022-08-05T11:00:48.432Z,100511.72
2022-08-05T11:03:23.461Z,100518.88
2022-08-05T11:06:15.007Z,100538.41
2022-08-05T11:09:13.234Z,100553.00
2022-08-05T11:11:53.416Z,100534.94
2022-08-05T11:17:59.953Z,100563.63
2022-08-05T11:20:32.984Z,100567.50
2022-08-05T11:23:05.818Z,100586.38
2022-08-05T11:26:04.084Z,100568.94
2022-08-05T11:28:32.454Z,100583.34
2022-08-05T11:31:06.128Z,100578.47
2022-08-05T11:33:46.683Z,100579.16
2022-08-05T11:36:34.429Z,100576.16
2022-08-05T11:39:09.270Z,100569.69
2022-08-05T11:42:01.614Z,100568.72
2022-08-05T11:44:53.220Z,100573.88
2022-08-05T11:47:22.061Z,100571.91
2022-08-05T11:50:08.599Z,100580.72
2022-08-05T11:52:35.343Z,100586.91
2022-08-05T11:55:07.639Z,100588.84
2022-08-05T11:58:08.477Z,100596.75
2022-08-05T12:00:28.861Z,100602.94
2022-08-05T12:02:56.623Z,100580.66
2022-08-05T12:05:32.151Z,100585.63
2022-08-05T12:08:10.897Z,100593.28
2022-08-05T12:10:45.206Z,100592.50
2022-08-05T12:13:28.187Z,100580.97
2022-08-05T12:16:18.540Z,100579.06
2022-08-05T12:18:49.114Z,100582.31
2022-08-05T12:21:24.648Z,100579.94
2022-08-05T12:24:08.683Z,100587.72
2022-08-05T12:26:39.661Z,100587.03
2022-08-05T12:29:16.406Z,100587.06
2022-08-05T12:31:52.983Z,100588.66
2022-08-05T12:34:26.678Z,100598.53
2022-08-05T12:36:55.042Z,100596.00
2022-08-05T12:39:34.634Z,100601.94
2022-08-05T12:42:17.705Z,100606.16
2022-08-05T12:44:45.973Z,100618.66
2022-08-05T12:47:26.271Z,100616.81
2022-08-05T12:50:03.669Z,100628.00
2022-08-05T12:52:39.247Z,100630.50
2022-08-05T12:55:22.196Z,100621.81
2022-08-05T12:58:49.212Z,100622.44
2022-08-05T13:02:04.163Z,100625.34
2022-08-05T13:03:32.270Z,100630.25
2022-08-05T13:06:01.232Z,100627.63
2022-08-05T13:08:32.387Z,100623.25
2022-08-05T13:11:01.358Z,100616.34
2022-08-05T13:14:05.024Z,100622.53
2022-08-05T13:16:17.176Z,100623.41
2022-08-05T13:18:55.041Z,100622.44
2022-08-05T13:21:28.542Z,100614.84
2022-08-05T13:24:09.059Z,100619.94
2022-08-05T13:26:36.096Z,100618.41
2022-08-05T13:29:05.141Z,100612.69
2022-08-05T13:32:03.064Z,100613.97
2022-08-05T13:34:23.243Z,100617.72
2022-08-05T13:36:52.407Z,100614.47
2022-08-05T13:40:13.234Z,100608.53
2022-08-05T13:42:06.013Z,100606.38
2022-08-05T13:44:32.726Z,100607.34
2022-08-05T13:47:08.503Z,100601.06
2022-08-05T13:49:49.791Z,100608.13
2022-08-05T13:52:18.058Z,100604.34
2022-08-05T13:54:53.313Z,100599.63
2022-08-05T13:57:21.114Z,100592.63
2022-08-05T13:59:57.209Z,100597.91
2022-08-05T14:02:26.458Z,100594.03
2022-08-05T14:05:15.098Z,100588.72
2022-08-05T14:08:00.906Z,100602.41
2022-08-05T14:10:32.521Z,100595.16
2022-08-05T14:12:59.906Z,100596.81
2022-08-05T14:16:04.904Z,100593.03
2022-08-05T14:18:18.436Z,100589.88
2022-08-05T14:20:48.804Z,100595.00
2022-08-05T14:23:19.281Z,100593.63
2022-08-05T14:25:58.464Z,100595.16
2022-08-05T14:28:29.894Z,100590.28
2022-08-05T14:30:58.722Z,100591.13
2022-08-05T14:33:25.490Z,100597.34
2022-08-05T14:35:54.226Z,100585.94
2022-08-05T14:38:32.093Z,100596.03
2022-08-05T14:41:06.827Z,100597.28
2022-08-05T14:43:55.281Z,100596.88
2022-08-05T14:46:28.031Z,100602.31
2022-08-05T14:48:59.497Z,100595.63
2022-08-05T14:51:30.799Z,100595.41
2022-08-05T14:54:26.413Z,100585.13
2022-08-05T14:56:46.645Z,100589.91
2022-08-05T14:59:14.689Z,100590.69
2022-08-05T15:01:49.208Z,100601.78
2022-08-05T15:04:20.306Z,100601.03
2022-08-05T15:06:48.980Z,100619.28
2022-08-05T15:09:52.287Z,100618.56
2022-08-05T15:12:09.536Z,100630.56
2022-08-05T15:14:49.419Z,100630.59
2022-08-05T15:17:46.124Z,100632.63
2022-08-05T15:20:11.953Z,100637.84
2022-08-05T15:22:44.737Z,100640.94
2022-08-05T15:25:14.273Z,100646.53
2022-08-05T15:27:42.738Z,100651.25
2022-08-05T15:30:10.948Z,100658.72
2022-08-05T15:32:40.915Z,100668.19
2022-08-05T15:35:10.816Z,100679.66
2022-08-05T15:38:08.712Z,100670.16
2022-08-05T15:41:00.697Z,100683.88
2022-08-05T15:43:20.051Z,100685.81
2022-08-05T15:45:48.091Z,100692.84
2022-08-05T15:48:28.651Z,100701.59
2022-08-05T15:50:55.369Z,100692.16
2022-08-05T15:53:23.292Z,100696.13
2022-08-05T15:56:01.235Z,100703.59
2022-08-05T15:58:35.798Z,100699.19
2022-08-05T16:01:16.574Z,100701.03
2022-08-05T16:03:48.471Z,100711.63
2022-08-05T16:06:20.110Z,100720.16
2022-08-05T16:08:50.903Z,100717.88
2022-08-05T16:11:18.444Z,100714.84
2022-08-05T16:13:48.447Z,100718.06
2022-08-05T16:16:25.117Z,100721.06
2022-08-05T16:18:52.993Z,100716.97
2022-08-05T16:21:20.617Z,100730.56
2022-08-05T16:24:12.816Z,100738.63
2022-08-05T16:27:00.602Z,100750.25
2022-08-05T16:29:28.576Z,100755.69
2022-08-05T16:31:58.433Z,100758.03
2022-08-05T16:34:26.597Z,100758.72
2022-08-05T16:36:53.855Z,100757.66
2022-08-05T16:39:21.003Z,100772.72
2022-08-05T16:42:13.872Z,100774.28
2022-08-05T16:44:34.752Z,100770.38
2022-08-05T16:47:04.497Z,100765.22
2022-08-05T16:49:31.296Z,100773.66
2022-08-05T16:51:57.992Z,100785.25
2022-08-05T16:54:30.465Z,100775.41
2022-08-05T16:56:59.891Z,100785.47
2022-08-05T16:59:27.678Z,100782.69
2022-08-05T17:01:55.699Z,100791.09
2022-08-05T17:04:29.106Z,100786.16
2022-08-05T17:07:01.854Z,100789.16
2022-08-05T17:09:30.620Z,100799.53
2022-08-05T17:12:05.926Z,100811.75
2022-08-05T17:14:38.095Z,100809.69
2022-08-05T17:17:09.377Z,100810.53
2022-08-05T17:19:43.830Z,100801.94
2022-08-05T17:22:24.381Z,100807.94
2022-08-05T17:24:57.993Z,100810.13
2022-08-05T17:27:27.158Z,100802.16
2022-08-05T17:30:00.551Z,100807.22
2022-08-05T17:32:29.277Z,100794.03
2022-08-05T17:34:58.253Z,100809.22
2022-08-05T17:37:41.876Z,100813.03
2022-08-05T17:40:15.197Z,100809.94
2022-08-05T17:42:50.951Z,100812.69
2022-08-05T17:45:24.850Z,100810.78
2022-08-05T17:47:55.798Z,100812.03
2022-08-05T17:50:30.327Z,100808.88
2022-08-05T17:53:02.550Z,100816.50
2022-08-05T17:55:34.527Z,100814.75
2022-08-05T17:58:06.942Z,100819.00
2022-08-05T18:00:36.008Z,100814.94
2022-08-05T18:03:06.668Z,100819.88
2022-08-05T18:05:36.084Z,100826.09
2022-08-05T18:08:05.106Z,100824.56
2022-08-05T18:10:33.436Z,100825.91
2022-08-05T18:13:01.900Z,100837.63
2022-08-05T18:15:34.442Z,100837.28
2022-08-05T18:18:05.705Z,100848.34
2022-08-05T18:20:38.059Z,100847.63
2022-08-05T18:23:08.986Z,100846.94
2022-08-05T18:25:38.800Z,100864.72
2022-08-05T18:28:06.152Z,100877.88
2022-08-05T18:30:33.995Z,100880.34
2022-08-05T18:33:01.736Z,100884.66
2022-08-05T18:36:01.421Z,100872.22
2022-08-05T18:38:19.444Z,100878.84
2022-08-05T18:41:55.277Z,100884.59
2022-08-05T18:43:43.047Z,100887.34
2022-08-05T18:46:19.788Z,100886.09
2022-08-05T18:48:53.905Z,100884.25
2022-08-05T18:52:04.401Z,100883.25
2022-08-05T18:54:28.507Z,100896.47
2022-08-05T18:57:01.198Z,100905.22
2022-08-05T18:59:42.812Z,100906.56
2022-08-05T19:02:28.149Z,100915.78
2022-08-05T19:05:02.153Z,100924.06
2022-08-05T19:07:45.625Z,100930.25
2022-08-05T19:10:14.436Z,100936.63
2022-08-05T19:12:41.446Z,100939.19
2022-08-05T19:15:45.080Z,100942.16
2022-08-05T19:18:08.667Z,100950.50
2022-08-05T19:20:41.592Z,100960.47
2022-08-05T19:24:06.052Z,100964.84
2022-08-05T19:26:01.743Z,100979.75
2022-08-05T19:28:31.239Z,100969.22
2022-08-05T19:31:00.268Z,100980.28
2022-08-05T19:33:33.966Z,100984.88
2022-08-05T19:36:02.992Z,100986.81
2022-08-05T19:38:37.035Z,100983.88
2022-08-05T19:41:08.954Z,100989.09
2022-08-05T19:44:04.240Z,101000.69
2022-08-05T19:46:29.348Z,100995.78
2022-08-05T19:49:03.451Z,101002.78
2022-08-05T19:52:08.662Z,101005.84
2022-08-05T19:54:31.080Z,101001.28
2022-08-05T19:56:59.869Z,100998.09
2022-08-05T20:00:00.938Z,101006.78
2022-08-05T20:02:17.866Z,101021.66
2022-08-05T20:04:46.225Z,101023.25
2022-08-05T20:07:15.094Z,101030.06
2022-08-05T20:09:54.770Z,101017.38
2022-08-05T20:12:24.929Z,101025.03
2022-08-05T20:14:53.039Z,101015.66
2022-08-05T20:17:23.840Z,101026.97
2022-08-05T20:19:56.954Z,101035.44
2022-08-05T20:22:26.981Z,101040.91
2022-08-05T20:24:55.765Z,101034.97
2022-08-05T20:27:27.023Z,101044.22
2022-08-05T20:29:57.704Z,101046.38
2022-08-05T20:32:26.562Z,101047.41
2022-08-05T20:34:53.783Z,101051.69
2022-08-05T20:38:04.657Z,101062.88
2022-08-05T20:40:09.197Z,101066.75
2022-08-05T20:42:36.186Z,101077.25
2022-08-05T20:45:04.598Z,101090.28
2022-08-05T20:47:32.720Z,101090.75
2022-08-05T20:50:02.081Z,101102.38
2022-08-05T20:52:29.726Z,101102.09
2022-08-05T20:55:15.988Z,101105.06
2022-08-05T20:57:45.000Z,101104.78
2022-08-05T21:00:41.248Z,101105.47
2022-08-05T21:03:06.942Z,101104.53
2022-08-05T21:05:48.230Z,101107.94
2022-08-05T21:08:26.595Z,101112.34
2022-08-05T21:10:59.757Z,101111.94
2022-08-05T21:13:48.293Z,101107.34
2022-08-05T21:16:19.179Z,101114.25
2022-08-05T21:18:46.151Z,101117.22
2022-08-05T21:21:12.884Z,101119.75
2022-08-05T21:23:39.701Z,101124.81
2022-08-05T21:26:12.389Z,101126.56
2022-08-05T21:28:47.912Z,101144.94
2022-08-05T21:31:19.243Z,101126.78
2022-08-05T21:33:47.501Z,101140.31
2022-08-05T21:36:27.496Z,101141.16
2022-08-05T21:38:56.690Z,101130.72
2022-08-05T21:41:23.682Z,101135.06
2022-08-05T21:43:50.725Z,101132.31
2022-08-05T21:46:28.107Z,101141.00
2022-08-05T21:48:56.588Z,101146.00
2022-08-05T21:51:25.050Z,101145.53
2022-08-05T21:54:11.271Z,101148.31
2022-08-05T21:56:44.281Z,101148.19
2022-08-05T21:59:24.025Z,101151.88
2022-08-05T22:01:54.520Z,101159.47
2022-08-05T22:04:25.529Z,101158.34
2022-08-05T22:06:52.774Z,101159.78
2022-08-05T22:09:21.114Z,101161.84
2022-08-05T22:11:48.575Z,101172.69
2022-08-05T22:14:33.520Z,101168.81
2022-08-05T22:17:03.742Z,101175.91
2022-08-05T22:19:57.534Z,101178.34
2022-08-05T22:22:27.141Z,101181.22
2022-08-05T22:25:21.228Z,101184.94
2022-08-05T22:28:09.152Z,101193.63
2022-08-05T22:30:56.200Z,101199.88
2022-08-05T22:33:56.974Z,101207.59
2022-08-05T22:36:15.581Z,101200.38
2022-08-05T22:38:48.006Z,101209.06
2022-08-05T22:41:26.307Z,101217.13
2022-08-05T22:44:07.835Z,101216.00
2022-08-05T22:46:39.603Z,101220.97
2022-08-05T22:49:12.422Z,101220.63
2022-08-05T22:52:06.673Z,101225.16
2022-08-05T22:54:36.255Z,101217.59
2022-08-05T22:57:04.738Z,101227.56
2022-08-05T22:59:45.514Z,101233.00
2022-08-05T23:02:17.797Z,101231.91
2022-08-05T23:04:51.111Z,101230.78
2022-08-05T23:07:18.383Z,101235.75
2022-08-05T23:09:58.488Z,101242.84
2022-08-05T23:12:32.445Z,101238.31
2022-08-05T23:15:03.132Z,101244.25
2022-08-05T23:17:34.419Z,101244.41
2022-08-05T23:20:16.536Z,101244.72
2022-08-05T23:22:47.445Z,101251.91
2022-08-05T23:25:17.688Z,101245.78
2022-08-05T23:28:03.640Z,101253.00
2022-08-05T23:30:40.338Z,101259.13
2022-08-05T23:33:22.526Z,101257.03
2022-08-05T23:35:56.069Z,101265.84
2022-08-05T23:38:24.148Z,101268.09
2022-08-05T23:40:52.870Z,101274.00
2022-08-05T23:43:25.667Z,101278.47
2022-08-05T23:46:20.252Z,101275.22
2022-08-05T23:48:59.211Z,101283.22
2022-08-05T23:51:52.555Z,101285.66
2022-08-05T23:54:25.287Z,101283.22
2022-08-05T23:56:53.937Z,101294.94
2022-08-05T23:59:20.546Z,101298.00
